Time;durP1;ratioP1;P1;durP2;ratioP2;P2;SDS_P1;SDS_P2;PMS_P1;PMS_P2;Temp;Humidity;BMP_temperature;BMP_pressure;BME280_temperature;BME280_humidity;BME280_pressure;Samples;Min_cycle;Max_cycle;Signal;HPM_P1;HPM_P2
2023/10/26 00:01:03;;;;;;;31.35;18.08;;;;;;;9.86;100.00;99244.22;5001461;28;20045;-68
2023/10/26 00:03:28;;;;;;;30.90;19.30;;;;;;;9.87;100.00;99242.41;4987298;28;20022;-68
2023/10/26 00:05:53;;;;;;;32.25;19.23;;;;;;;9.96;100.00;99236.09;5000144;28;20420;-68
2023/10/26 00:08:19;;;;;;;32.65;19.23;;;;;;;9.81;100.00;99231.03;4983641;28;20037;-68
2023/10/26 00:10:46;;;;;;;32.92;18.95;;;;;;;9.88;100.00;99241.44;5003821;28;20463;-68
2023/10/26 00:13:12;;;;;;;33.17;18.63;;;;;;;9.83;100.00;99244.59;4987331;28;20022;-68
2023/10/26 00:15:37;;;;;;;36.17;19.52;;;;;;;9.83;100.00;99249.78;4998584;28;20031;-68
2023/10/26 00:18:03;;;;;;;34.42;21.15;;;;;;;9.81;100.00;99245.75;4999836;28;20044;-68
2023/10/26 00:20:30;;;;;;;30.85;18.67;;;;;;;9.85;100.00;99252.16;4982441;28;20404;-68
2023/10/26 00:22:55;;;;;;;35.20;19.45;;;;;;;9.78;100.00;99266.88;4986653;28;20408;-68
2023/10/26 00:25:21;;;;;;;31.63;18.98;;;;;;;9.87;100.00;99265.72;5006841;28;20042;-68
2023/10/26 00:27:47;;;;;;;29.40;18.02;;;;;;;9.83;100.00;99274.84;5005679;28;20046;-68
2023/10/26 00:30:12;;;;;;;28.17;18.30;;;;;;;9.80;100.00;99273.44;5003309;28;20472;-68
2023/10/26 00:32:38;;;;;;;30.90;18.75;;;;;;;9.75;100.00;99286.94;5005305;28;20034;-68
2023/10/26 00:35:04;;;;;;;34.45;20.23;;;;;;;9.77;100.00;99285.97;5002853;28;20038;-68
2023/10/26 00:37:30;;;;;;;34.65;20.38;;;;;;;9.75;100.00;99293.91;4988407;28;20041;-68
2023/10/26 00:39:56;;;;;;;36.42;21.05;;;;;;;9.97;100.00;99293.88;4995334;28;20033;-68
2023/10/26 00:42:21;;;;;;;32.75;20.25;;;;;;;9.84;100.00;99292.78;4987837;28;20042;-68
2023/10/26 00:44:49;;;;;;;33.05;19.70;;;;;;;9.88;100.00;99293.22;5005264;28;20026;-67
2023/10/26 00:47:15;;;;;;;30.77;18.88;;;;;;;9.84;100.00;99302.34;4999108;28;20034;-68
2023/10/26 00:49:40;;;;;;;30.65;18.73;;;;;;;9.82;100.00;99302.53;4986178;28;20520;-69
2023/10/26 00:52:07;;;;;;;33.88;19.88;;;;;;;9.80;100.00;99301.13;4967340;28;20073;-68
2023/10/26 00:54:34;;;;;;;31.75;19.38;;;;;;;9.86;100.00;99306.34;5002582;28;20027;-68
2023/10/26 00:57:01;;;;;;;30.65;19.15;;;;;;;9.82;100.00;99304.31;5002119;28;20072;-68
2023/10/26 00:59:28;;;;;;;32.35;18.75;;;;;;;9.73;100.00;99303.66;4989465;28;20120;-68
2023/10/26 01:01:55;;;;;;;32.25;19.58;;;;;;;9.75;100.00;99307.63;5001761;28;20057;-68
2023/10/26 01:04:21;;;;;;;32.20;18.83;;;;;;;9.78;100.00;99306.47;4989193;28;20091;-68
2023/10/26 01:06:46;;;;;;;28.73;18.45;;;;;;;9.76;100.00;99311.06;5004859;28;20508;-67
2023/10/26 01:09:13;;;;;;;33.22;19.70;;;;;;;9.70;100.00;99302.25;4983189;28;20060;-68
2023/10/26 01:11:39;;;;;;;31.45;18.60;;;;;;;9.67;100.00;99307.78;5001894;28;20046;-68
2023/10/26 01:14:06;;;;;;;30.08;18.73;;;;;;;9.75;100.00;99312.81;4984526;28;20038;-68
2023/10/26 01:16:32;;;;;;;29.00;17.90;;;;;;;9.69;100.00;99316.16;4998858;28;20419;-68
2023/10/26 01:19:04;;;;;;;32.97;16.60;;;;;;;9.70;100.00;99320.38;4999910;28;20025;-68
2023/10/26 01:21:31;;;;;;;31.55;17.88;;;;;;;9.66;100.00;99320.91;4983840;28;20073;-67
2023/10/26 01:23:58;;;;;;;27.17;16.20;;;;;;;9.65;100.00;99324.50;4999304;28;20073;-68
2023/10/26 01:26:23;;;;;;;27.65;17.08;;;;;;;9.62;100.00;99327.44;4994889;28;20076;-68
2023/10/26 01:28:49;;;;;;;24.00;15.63;;;;;;;9.59;100.00;99325.22;4984409;28;20045;-68
2023/10/26 01:31:16;;;;;;;29.63;15.68;;;;;;;9.64;100.00;99333.22;4996950;28;20042;-68
2023/10/26 01:33:42;;;;;;;22.65;14.10;;;;;;;9.60;100.00;99332.78;4984125;28;20042;-67
2023/10/26 01:36:08;;;;;;;24.75;15.18;;;;;;;9.57;100.00;99337.53;4986924;28;20048;-68
2023/10/26 01:38:35;;;;;;;23.05;14.05;;;;;;;9.55;100.00;99348.09;4987512;28;20030;-67
2023/10/26 01:41:01;;;;;;;25.35;13.88;;;;;;;9.49;100.00;99349.63;5000195;28;20048;-67
2023/10/26 01:43:26;;;;;;;23.15;14.85;;;;;;;9.50;100.00;99346.03;4984327;28;20774;-67
2023/10/26 01:45:52;;;;;;;21.05;14.30;;;;;;;9.49;100.00;99344.47;4969667;28;20523;-68
2023/10/26 01:48:18;;;;;;;24.38;13.55;;;;;;;9.50;100.00;99346.03;5001964;28;20037;-68
2023/10/26 01:50:43;;;;;;;20.35;13.57;;;;;;;9.51;100.00;99345.06;4986405;28;20042;-67
2023/10/26 01:53:09;;;;;;;22.90;14.45;;;;;;;9.50;100.00;99351.22;4987380;28;20100;-67
2023/10/26 01:55:34;;;;;;;19.83;12.00;;;;;;;9.50;100.00;99342.66;4983048;28;20681;-68
2023/10/26 01:57:59;;;;;;;15.75;10.43;;;;;;;9.39;100.00;99335.38;4981883;28;20034;-68
2023/10/26 02:00:25;;;;;;;12.02;7.72;;;;;;;9.40;100.00;99331.81;4997621;28;20527;-68
2023/10/26 02:02:51;;;;;;;11.07;7.70;;;;;;;9.42;100.00;99327.25;5003420;28;20069;-67
2023/10/26 02:05:17;;;;;;;10.45;7.00;;;;;;;9.45;100.00;99343.19;4986907;28;20038;-68
2023/10/26 02:07:43;;;;;;;15.38;8.02;;;;;;;9.42;100.00;99338.41;4982445;28;20583;-68
2023/10/26 02:10:13;;;;;;;13.02;8.27;;;;;;;9.54;100.00;99343.91;4984559;28;20091;-67
2023/10/26 02:12:38;;;;;;;12.73;8.32;;;;;;;9.49;100.00;99341.88;4983519;28;20400;-67
2023/10/26 02:15:04;;;;;;;19.63;9.68;;;;;;;9.40;100.00;99340.38;4999564;28;20029;-67
2023/10/26 02:17:30;;;;;;;13.65;8.82;;;;;;;9.43;100.00;99337.41;4985876;28;20038;-67
2023/10/26 02:19:55;;;;;;;15.07;9.63;;;;;;;9.43;100.00;99329.66;5001221;28;20037;-68
2023/10/26 02:22:21;;;;;;;13.98;9.18;;;;;;;9.41;100.00;99339.38;4985252;28;20053;-67
2023/10/26 02:24:46;;;;;;;13.38;8.75;;;;;;;9.41;100.00;99338.59;5000313;28;20038;-67
2023/10/26 02:27:12;;;;;;;11.60;7.55;;;;;;;9.36;100.00;99346.88;4982983;28;20045;-67
2023/10/26 02:29:37;;;;;;;12.27;7.35;;;;;;;9.26;100.00;99354.94;4987196;28;20042;-67
2023/10/26 02:32:03;;;;;;;13.02;8.73;;;;;;;9.24;100.00;99350.94;4999617;28;20041;-67
2023/10/26 02:34:28;;;;;;;14.93;8.63;;;;;;;9.20;100.00;99355.69;4989513;28;20045;-67
2023/10/26 02:36:54;;;;;;;16.38;10.02;;;;;;;9.24;100.00;99364.69;4985164;28;20034;-67
2023/10/26 02:39:19;;;;;;;13.60;9.25;;;;;;;9.23;100.00;99362.25;4997693;28;20973;-67
2023/10/26 02:41:45;;;;;;;17.98;9.55;;;;;;;9.28;100.00;99352.97;4984534;28;20049;-67
2023/10/26 02:44:10;;;;;;;14.90;10.25;;;;;;;9.24;100.00;99361.28;4987021;28;20396;-67
2023/10/26 02:46:36;;;;;;;16.38;10.52;;;;;;;9.22;100.00;99363.25;4984698;28;20073;-67
2023/10/26 02:49:01;;;;;;;16.40;9.73;;;;;;;9.22;100.00;99358.88;4985485;28;20038;-67
2023/10/26 02:51:27;;;;;;;21.10;11.80;;;;;;;9.23;100.00;99357.91;5003960;28;20392;-67
2023/10/26 02:53:52;;;;;;;17.88;11.32;;;;;;;9.24;100.00;99358.72;5000302;28;20097;-67
2023/10/26 02:56:19;;;;;;;16.38;11.05;;;;;;;9.23;100.00;99363.09;4995506;28;20030;-67
2023/10/26 02:58:44;;;;;;;19.60;11.02;;;;;;;9.23;100.00;99359.69;5001101;28;20040;-67
2023/10/26 03:01:10;;;;;;;22.77;11.95;;;;;;;9.24;100.00;99354.31;5001875;28;20795;-67
2023/10/26 03:03:35;;;;;;;22.52;13.32;;;;;;;9.29;100.00;99346.84;4987412;28;20029;-67
2023/10/26 03:06:02;;;;;;;20.75;13.52;;;;;;;9.30;100.00;99353.59;5000342;28;20050;-68
2023/10/26 03:08:27;;;;;;;26.58;13.18;;;;;;;9.31;100.00;99346.66;4968053;28;20180;-67
2023/10/26 03:10:53;;;;;;;22.48;14.05;;;;;;;9.34;100.00;99351.44;4999858;28;20508;-68
2023/10/26 03:13:18;;;;;;;21.27;14.18;;;;;;;9.27;100.00;99348.00;4986727;28;20030;-67
2023/10/26 03:15:44;;;;;;;21.77;14.40;;;;;;;9.22;100.00;99350.34;4997547;28;20049;-67
2023/10/26 03:18:09;;;;;;;23.60;15.07;;;;;;;9.19;100.00;99348.09;5000528;28;20484;-67
2023/10/26 03:20:35;;;;;;;29.38;15.32;;;;;;;9.18;100.00;99352.47;4995046;28;20041;-67
2023/10/26 03:23:00;;;;;;;22.33;13.10;;;;;;;9.18;100.00;99364.63;5000699;28;20022;-67
2023/10/26 03:25:26;;;;;;;30.23;15.75;;;;;;;9.14;100.00;99359.00;4983429;28;20579;-67
2023/10/26 03:27:52;;;;;;;23.02;13.98;;;;;;;9.12;100.00;99364.34;4986562;28;20041;-67
2023/10/26 03:30:18;;;;;;;20.95;13.65;;;;;;;9.14;100.00;99372.72;5000880;28;20042;-67
2023/10/26 03:32:45;;;;;;;23.55;14.77;;;;;;;9.13;100.00;99370.31;5001164;28;20100;-67
2023/10/26 03:35:11;;;;;;;25.20;15.25;;;;;;;9.18;100.00;99374.97;4994018;23;20052;-89
2023/10/26 03:37:37;;;;;;;24.17;14.73;;;;;;;9.15;100.00;99376.94;4989829;28;20057;-89
2023/10/26 03:40:06;;;;;;;25.95;15.32;;;;;;;9.19;100.00;99376.53;4976263;28;20181;-88
2023/10/26 03:42:32;;;;;;;25.65;15.70;;;;;;;9.16;100.00;99368.16;4977020;28;20030;-89
2023/10/26 03:44:57;;;;;;;30.70;16.40;;;;;;;9.16;100.00;99363.00;4974636;28;20128;-88
2023/10/26 03:47:23;;;;;;;25.33;15.48;;;;;;;9.20;100.00;99366.03;4974162;28;20113;-89
2023/10/26 03:49:54;;;;;;;24.80;14.82;;;;;;;9.18;100.00;99364.63;4979994;28;20553;-89
2023/10/26 03:52:21;;;;;;;28.23;16.75;;;;;;;9.18;100.00;99377.53;4972728;28;20034;-91
2023/10/26 03:54:49;;;;;;;23.77;14.63;;;;;;;9.22;100.00;99381.38;4989942;28;20053;-89
2023/10/26 03:57:18;;;;;;;26.92;15.73;;;;;;;9.16;100.00;99378.53;4971609;28;20161;-89
2023/10/26 03:59:43;;;;;;;25.48;15.65;;;;;;;9.16;100.00;99375.13;4979634;28;20034;-88
2023/10/26 04:02:09;;;;;;;24.77;14.98;;;;;;;9.21;100.00;99370.22;4975634;28;20042;-87
2023/10/26 04:04:34;;;;;;;25.20;14.68;;;;;;;9.14;100.00;99356.41;4973770;28;20483;-88
2023/10/26 04:07:00;;;;;;;24.88;14.38;;;;;;;9.15;100.00;99356.25;4976189;28;20033;-89
2023/10/26 04:09:25;;;;;;;25.00;14.68;;;;;;;9.17;100.00;99361.22;4992999;28;20037;-89
2023/10/26 04:11:51;;;;;;;23.52;14.65;;;;;;;9.14;100.00;99364.97;4991570;28;20063;-88
2023/10/26 04:14:17;;;;;;;23.33;14.57;;;;;;;9.11;100.00;99364.53;4994238;28;20032;-88
2023/10/26 04:16:47;;;;;;;25.27;14.23;;;;;;;9.12;100.00;99356.59;4978171;28;20565;-89
2023/10/26 04:19:13;;;;;;;22.33;13.65;;;;;;;9.03;100.00;99356.88;4994273;28;20061;-88
2023/10/26 04:21:39;;;;;;;26.52;14.18;;;;;;;9.04;100.00;99369.63;4993284;28;20038;-88
2023/10/26 04:24:04;;;;;;;19.50;12.13;;;;;;;9.02;100.00;99368.19;4981492;28;20029;-89
2023/10/26 04:26:30;;;;;;;18.95;11.85;;;;;;;8.99;100.00;99371.94;4988646;28;20030;-89
2023/10/26 04:28:56;;;;;;;21.48;13.05;;;;;;;8.99;100.00;99361.59;4989319;28;20030;-88
2023/10/26 04:31:22;;;;;;;20.42;11.55;;;;;;;8.98;100.00;99354.81;4989460;28;20376;-88
2023/10/26 04:33:48;;;;;;;21.13;12.88;;;;;;;8.97;100.00;99355.81;4986926;28;20034;-89
2023/10/26 04:36:14;;;;;;;21.55;12.60;;;;;;;8.95;100.00;99357.78;4993830;28;20040;-89
2023/10/26 04:38:39;;;;;;;18.88;11.93;;;;;;;8.94;100.00;99359.53;4976647;28;20116;-88
2023/10/26 04:41:05;;;;;;;20.85;12.93;;;;;;;8.92;100.00;99361.50;4975173;28;20045;-89
2023/10/26 04:43:31;;;;;;;22.13;12.75;;;;;;;8.86;100.00;99356.28;4993451;28;20034;-89
2023/10/26 04:45:56;;;;;;;27.92;12.73;;;;;;;8.82;100.00;99361.00;4974962;28;20042;-89
2023/10/26 04:48:22;;;;;;;20.33;12.10;;;;;;;8.76;100.00;99352.19;4991861;28;20127;-89
2023/10/26 04:50:47;;;;;;;21.48;12.60;;;;;;;8.73;100.00;99349.94;4994709;28;20034;-88
2023/10/26 04:53:13;;;;;;;23.70;13.25;;;;;;;8.73;100.00;99351.72;4979127;28;20053;-89
2023/10/26 04:55:39;;;;;;;23.20;12.77;;;;;;;8.69;100.00;99351.28;4976062;28;20487;-89
2023/10/26 04:58:04;;;;;;;18.77;11.40;;;;;;;8.66;100.00;99361.19;4977624;28;20038;-89
2023/10/26 05:00:31;;;;;;;20.55;13.13;;;;;;;8.63;100.00;99354.59;4971474;28;20040;-88
2023/10/26 05:02:59;;;;;;;19.27;12.30;;;;;;;8.62;100.00;99352.97;4977764;28;20037;-89
2023/10/26 05:05:28;;;;;;;21.33;13.48;;;;;;;8.58;100.00;99355.09;4972366;28;20038;-89
2023/10/26 05:07:53;;;;;;;23.25;12.93;;;;;;;8.56;100.00;99359.66;4980848;28;20029;-88
2023/10/26 05:10:20;;;;;;;19.77;12.75;;;;;;;8.55;100.00;99354.66;4972618;28;20034;-90
2023/10/26 05:12:45;;;;;;;19.05;11.75;;;;;;;8.53;100.00;99357.44;4976122;28;20592;-88
2023/10/26 05:15:11;;;;;;;20.20;12.48;;;;;;;8.52;100.00;99349.88;4974677;28;20029;-89
2023/10/26 05:17:37;;;;;;;20.27;12.60;;;;;;;8.51;100.00;99349.06;4974518;28;20064;-89
2023/10/26 05:20:07;;;;;;;26.80;12.15;;;;;;;8.48;100.00;99346.03;4978690;28;20033;-89
2023/10/26 05:22:35;;;;;;;21.08;12.55;;;;;;;8.44;100.00;99349.94;5008438;28;20128;-89
2023/10/26 05:25:04;;;;;;;21.55;13.32;;;;;;;8.41;100.00;99347.69;4982319;28;20014;-88
2023/10/26 05:27:30;;;;;;;24.92;13.73;;;;;;;8.37;100.00;99353.19;4996573;28;20042;-88
2023/10/26 05:29:56;;;;;;;22.90;13.82;;;;;;;8.34;100.00;99335.50;4978610;28;20033;-89
2023/10/26 05:32:21;;;;;;;26.08;13.63;;;;;;;8.32;100.00;99339.22;4994447;28;20068;-89
2023/10/26 05:34:47;;;;;;;23.83;14.60;;;;;;;8.32;100.00;99340.00;4978393;28;20030;-90
2023/10/26 05:37:12;;;;;;;27.60;15.18;;;;;;;8.31;100.00;99342.78;4991130;28;20046;-88
2023/10/26 05:39:41;;;;;;;26.50;15.30;;;;;;;8.28;100.00;99346.50;4978765;28;20037;-88
2023/10/26 05:42:10;;;;;;;21.27;14.73;;;;;;;8.26;100.00;99342.50;4990509;28;20116;-90
2023/10/26 05:44:35;;;;;;;22.77;13.73;;;;;;;8.23;100.00;99335.94;4973202;28;20030;-91
2023/10/26 05:47:04;;;;;;;22.45;12.55;;;;;;;8.24;100.00;99344.47;4975501;28;20037;-89
2023/10/26 05:49:29;;;;;;;20.40;12.43;;;;;;;8.21;100.00;99345.59;4993725;28;20470;-91
2023/10/26 05:51:57;;;;;;;22.65;12.68;;;;;;;8.18;100.00;99345.97;5002445;28;20053;-90
2023/10/26 05:54:22;;;;;;;24.27;13.23;;;;;;;8.14;100.00;99342.13;4975076;28;20050;-89
2023/10/26 05:56:48;;;;;;;28.20;14.05;;;;;;;8.11;100.00;99347.63;4977378;28;20431;-91
2023/10/26 05:59:13;;;;;;;25.60;14.18;;;;;;;8.08;100.00;99345.41;4975789;28;20042;-90
2023/10/26 06:01:39;;;;;;;24.10;13.75;;;;;;;8.08;100.00;99350.56;4971296;28;20454;-90
2023/10/26 06:04:04;;;;;;;22.77;13.50;;;;;;;8.07;100.00;99339.44;4985276;28;20042;-90
2023/10/26 06:06:30;;;;;;;22.90;12.93;;;;;;;8.06;100.00;99340.44;4976078;28;20069;-91
2023/10/26 06:08:55;;;;;;;24.70;14.35;;;;;;;8.06;100.00;99332.69;4975070;28;20100;-90
2023/10/26 06:11:22;;;;;;;23.50;12.82;;;;;;;8.07;100.00;99333.47;4988520;28;20046;-90
2023/10/26 06:13:47;;;;;;;23.80;12.60;;;;;;;8.04;100.00;99337.19;4995603;28;20034;-90
2023/10/26 06:16:15;;;;;;;23.63;14.55;;;;;;;7.99;100.00;99335.16;4973609;28;20498;-90
2023/10/26 06:18:42;;;;;;;37.60;20.25;;;;;;;8.00;100.00;99328.19;4992388;28;20502;-91
2023/10/26 06:21:08;;;;;;;26.60;15.35;;;;;;;7.99;100.00;99336.94;4973307;28;20045;-89
2023/10/26 06:23:34;;;;;;;24.75;13.05;;;;;;;7.96;100.00;99327.75;4988793;28;20026;-90
2023/10/26 06:26:01;;;;;;;21.45;11.90;;;;;;;7.97;100.00;99328.56;4978906;28;20037;-89
2023/10/26 06:28:27;;;;;;;23.25;11.48;;;;;;;7.98;100.00;99327.56;4976827;28;20399;-89
2023/10/26 06:30:53;;;;;;;21.60;12.27;;;;;;;7.98;100.00;99328.38;4992094;28;20034;-89
2023/10/26 06:33:19;;;;;;;25.27;13.70;;;;;;;7.98;100.00;99330.94;4977893;28;20520;-89
2023/10/26 06:35:44;;;;;;;22.17;12.38;;;;;;;7.97;100.00;99334.53;4978687;28;20050;-91
2023/10/26 06:38:10;;;;;;;27.75;13.80;;;;;;;7.98;100.00;99332.75;4970824;28;20419;-90
2023/10/26 06:40:35;;;;;;;23.85;12.73;;;;;;;7.98;100.00;99332.75;4975105;28;20030;-90
2023/10/26 06:43:01;;;;;;;26.20;14.45;;;;;;;7.96;100.00;99338.06;4992298;28;20034;-89
2023/10/26 06:45:26;;;;;;;26.35;13.75;;;;;;;7.97;100.00;99331.16;4992528;28;20033;-88
2023/10/26 06:47:52;;;;;;;24.90;13.02;;;;;;;7.96;100.00;99335.50;4977389;28;20068;-89
2023/10/26 06:50:17;;;;;;;24.75;12.43;;;;;;;7.96;100.00;99343.22;4981937;28;20039;-89
2023/10/26 06:52:43;;;;;;;23.10;12.57;;;;;;;7.97;100.00;99344.06;4992436;28;20386;-89
2023/10/26 06:55:14;;;;;;;23.17;12.52;;;;;;;7.93;100.00;99337.63;4987473;28;20115;-90
2023/10/26 06:57:43;;;;;;;20.00;10.98;;;;;;;7.86;100.00;99332.38;4989378;28;20037;-88
2023/10/26 07:00:10;;;;;;;16.92;9.60;;;;;;;7.81;100.00;99339.81;4984649;28;20061;-90
2023/10/26 07:02:36;;;;;;;19.25;10.15;;;;;;;7.78;100.00;99342.75;4990352;28;20030;-89
2023/10/26 07:05:03;;;;;;;20.08;10.35;;;;;;;7.74;100.00;99341.47;4971985;28;20479;-90
2023/10/26 07:07:33;;;;;;;19.83;10.35;;;;;;;7.72;100.00;99339.09;4974797;28;20490;-90
2023/10/26 07:09:58;;;;;;;17.75;9.63;;;;;;;7.71;100.00;99344.41;4970889;28;20026;-90
2023/10/26 07:12:24;;;;;;;17.45;10.00;;;;;;;7.72;100.00;99338.25;4981114;28;20181;-90
2023/10/26 07:14:53;;;;;;;19.73;11.52;;;;;;;7.73;100.00;99338.09;4989978;28;20034;-90
2023/10/26 07:17:23;;;;;;;19.05;10.40;;;;;;;7.75;100.00;99333.56;4982479;28;20034;-90
2023/10/26 07:19:50;;;;;;;20.45;11.32;;;;;;;7.78;100.00;99330.66;4972771;28;20490;-91
2023/10/26 07:22:19;;;;;;;19.95;10.52;;;;;;;7.81;100.00;99329.50;4986954;28;20490;-91
2023/10/26 07:24:48;;;;;;;20.67;10.23;;;;;;;7.86;100.00;99328.97;4975468;28;20352;-92
2023/10/26 07:39:07;;;;;;;19.48;10.82;;;;;;;7.95;100.00;99312.47;4964939;28;20046;-92
2023/10/26 07:41:35;;;;;;;18.23;10.52;;;;;;;7.98;100.00;99302.56;4967525;28;20077;-91
2023/10/26 07:44:43;;;;;;;;;;;;;;;;;;;;;
2023/10/26 07:50:58;;;;;;;22.17;11.30;;;;;;;8.18;100.00;99317.56;4982555;28;20777;-67
2023/10/26 07:53:23;;;;;;;20.90;12.00;;;;;;;8.21;100.00;99318.97;4969845;28;20038;-66
2023/10/26 07:55:50;;;;;;;22.92;11.93;;;;;;;8.27;100.00;99324.25;4975955;28;20042;-66
2023/10/26 07:58:16;;;;;;;23.02;12.45;;;;;;;8.31;100.00;99324.72;4946572;28;20065;-67
2023/10/26 08:00:41;;;;;;;25.30;13.23;;;;;;;8.35;100.00;99328.53;4954809;28;20081;-66
2023/10/26 08:03:07;;;;;;;26.58;12.82;;;;;;;8.44;100.00;99326.69;4963235;28;20098;-66
2023/10/26 08:05:32;;;;;;;25.98;13.57;;;;;;;8.52;100.00;99329.19;4947719;28;20044;-67
2023/10/26 08:07:58;;;;;;;26.15;13.52;;;;;;;8.61;100.00;99337.63;4965427;28;20580;-66
2023/10/26 08:10:24;;;;;;;25.95;14.63;;;;;;;8.66;100.00;99336.13;4960951;28;20079;-68
2023/10/26 08:12:51;;;;;;;27.15;14.50;;;;;;;8.76;100.00;99335.88;4966677;28;20022;-69
2023/10/26 08:15:17;;;;;;;30.02;14.40;;;;;;;8.82;100.00;99345.50;4965609;28;20051;-69
2023/10/26 08:17:42;;;;;;;52.38;25.83;;;;;;;8.87;100.00;99344.94;4967093;28;20039;-69
2023/10/26 08:20:08;;;;;;;48.88;24.10;;;;;;;8.93;100.00;99339.06;4962557;28;20545;-69
2023/10/26 08:22:34;;;;;;;41.97;20.13;;;;;;;9.04;100.00;99333.44;4982599;28;20039;-69
2023/10/26 08:25:00;;;;;;;42.35;22.88;;;;;;;9.13;100.00;99336.69;4963847;28;20046;-69
2023/10/26 08:27:29;;;;;;;36.13;18.92;;;;;;;9.19;100.00;99337.75;4960453;28;20114;-69
2023/10/26 08:29:54;;;;;;;39.45;20.90;;;;;;;9.19;100.00;99345.50;4958228;28;20066;-69
2023/10/26 08:32:20;;;;;;;41.03;21.58;;;;;;;9.24;100.00;99331.06;4963117;28;20070;-69
2023/10/26 08:34:46;;;;;;;42.88;22.55;;;;;;;9.32;100.00;99338.72;4962318;28;20031;-69
2023/10/26 08:37:12;;;;;;;44.53;21.48;;;;;;;9.44;100.00;99346.78;4964587;28;20130;-69
2023/10/26 08:39:38;;;;;;;43.47;22.48;;;;;;;9.59;100.00;99348.50;4964703;28;20138;-69
2023/10/26 08:42:04;;;;;;;40.80;19.38;;;;;;;9.80;100.00;99347.72;4964428;28;20043;-69
2023/10/26 08:44:29;;;;;;;69.75;36.30;;;;;;;10.23;100.00;99356.22;4968374;28;20397;-69
2023/10/26 08:47:02;;;;;;;57.47;31.17;;;;;;;10.85;100.00;99357.22;4967481;28;20421;-69
2023/10/26 08:49:28;;;;;;;62.33;34.42;;;;;;;11.26;100.00;99350.38;4968014;28;20090;-69
2023/10/26 08:51:54;;;;;;;46.33;26.85;;;;;;;11.00;100.00;99357.09;4982271;28;20085;-69
2023/10/26 08:54:20;;;;;;;42.67;24.90;;;;;;;10.69;100.00;99355.72;4968901;28;20437;-69
2023/10/26 08:56:46;;;;;;;45.00;24.98;;;;;;;10.83;100.00;99353.19;4977650;28;20073;-69
2023/10/26 08:59:11;;;;;;;42.17;22.33;;;;;;;10.97;100.00;99341.91;4962899;28;20035;-69
2023/10/26 09:01:37;;;;;;;39.75;20.58;;;;;;;11.05;100.00;99346.13;4950503;28;20053;-69
2023/10/26 09:04:10;;;;;;;38.95;22.33;;;;;;;11.14;100.00;99341.56;4964384;28;20046;-69
2023/10/26 09:06:46;;;;;;;45.90;23.00;;;;;;;11.03;100.00;99340.31;4966865;28;20043;-69
2023/10/26 09:09:13;;;;;;;40.63;21.75;;;;;;;11.04;100.00;99327.16;4966645;28;20033;-69
2023/10/26 09:11:38;;;;;;;43.10;22.92;;;;;;;11.07;100.00;99324.16;4965319;28;20062;-69
2023/10/26 09:14:21;;;;;;;33.28;18.75;;;;;;;11.10;100.00;99325.59;4978528;28;20058;-69
2023/10/26 09:16:48;;;;;;;47.90;25.45;;;;;;;11.09;100.00;99329.97;4965121;28;20054;-69
2023/10/26 09:19:16;;;;;;;63.30;33.83;;;;;;;11.12;100.00;99333.19;4967104;28;20485;-69
2023/10/26 09:21:56;;;;;;;36.67;20.67;;;;;;;11.19;100.00;99332.22;4967838;28;20054;-69
2023/10/26 09:24:24;;;;;;;34.83;19.20;;;;;;;11.34;100.00;99329.44;4964628;28;20038;-68
2023/10/26 09:26:54;;;;;;;36.17;18.65;;;;;;;11.49;100.00;99331.88;4965256;28;20053;-68
2023/10/26 09:29:21;;;;;;;32.40;17.23;;;;;;;11.40;100.00;99338.25;4968733;28;20027;-69
2023/10/26 09:31:53;;;;;;;27.98;15.70;;;;;;;11.29;100.00;99340.41;4963524;28;20528;-69
2023/10/26 09:34:23;;;;;;;27.08;15.02;;;;;;;11.24;100.00;99344.59;4953719;28;20046;-69
2023/10/26 09:37:05;;;;;;;27.85;14.65;;;;;;;11.15;100.00;99346.56;4977762;28;20049;-69
2023/10/26 09:39:33;;;;;;;25.90;14.07;;;;;;;11.13;100.00;99329.56;4970411;28;20038;-69
2023/10/26 09:42:00;;;;;;;25.60;14.23;;;;;;;11.15;100.00;99335.38;4968369;28;20035;-69
2023/10/26 09:44:29;;;;;;;26.98;15.27;;;;;;;11.18;100.00;99338.38;4981737;28;20535;-68
2023/10/26 09:46:56;;;;;;;26.40;13.63;;;;;;;11.17;100.00;99341.97;4982006;28;20085;-68
2023/10/26 09:49:22;;;;;;;16.17;9.30;;;;;;;11.24;100.00;99331.59;4966120;28;20038;-68
2023/10/26 09:51:48;;;;;;;11.50;7.28;;;;;;;11.17;100.00;99330.78;4982606;28;20047;-68
2023/10/26 09:54:15;;;;;;;12.70;7.13;;;;;;;11.12;100.00;99331.38;4965205;28;20042;-69
2023/10/26 09:56:47;;;;;;;9.02;5.50;;;;;;;11.23;100.00;99337.81;4962469;28;20130;-68
2023/10/26 09:59:14;;;;;;;9.38;4.90;;;;;;;11.23;100.00;99343.00;4965966;28;20042;-69
2023/10/26 10:01:40;;;;;;;7.70;4.70;;;;;;;11.15;100.00;99330.19;4964729;28;20047;-69
2023/10/26 10:04:10;;;;;;;5.78;3.28;;;;;;;11.12;100.00;99331.38;4989479;23;20049;-68
2023/10/26 10:06:58;;;;;;;9.00;5.43;;;;;;;11.31;99.43;99335.03;5004434;28;20030;-68
2023/10/26 10:09:27;;;;;;;13.63;7.03;;;;;;;11.24;99.59;99335.00;4986906;28;20038;-68
2023/10/26 10:12:14;;;;;;;13.82;7.57;;;;;;;11.27;100.00;99336.41;4970328;28;20069;-68
2023/10/26 10:14:49;;;;;;;12.43;7.47;;;;;;;11.22;100.00;99329.19;4974846;28;20033;-68
2023/10/26 10:17:17;;;;;;;6.75;4.07;;;;;;;11.21;100.00;99319.84;4980266;28;20042;-68
2023/10/26 10:19:43;;;;;;;5.65;3.58;;;;;;;11.28;96.06;99323.25;4971368;28;20046;-68
2023/10/26 10:22:33;;;;;;;12.23;5.70;;;;;;;11.26;97.25;99319.22;4966810;28;20121;-68
2023/10/26 10:24:59;;;;;;;7.47;4.93;;;;;;;11.22;97.31;99328.41;4983327;28;20049;-68
2023/10/26 10:27:25;;;;;;;9.65;5.40;;;;;;;11.21;97.99;99329.41;4968493;28;20038;-69
2023/10/26 10:29:50;;;;;;;11.00;4.18;;;;;;;11.15;95.64;99322.41;4985729;28;20057;-68
2023/10/26 10:32:47;;;;;;;7.07;4.50;;;;;;;11.07;98.57;99321.56;4964630;28;20098;-68
2023/10/26 10:35:25;;;;;;;7.03;4.15;;;;;;;11.20;98.47;99322.63;4984931;28;20033;-68
2023/10/26 10:38:19;;;;;;;9.65;5.03;;;;;;;11.21;99.42;99316.44;4969798;28;20038;-68
2023/10/26 10:40:53;;;;;;;8.52;4.22;;;;;;;11.23;98.51;99311.84;4947173;28;20145;-68
2023/10/26 10:43:36;;;;;;;9.20;4.65;;;;;;;11.29;98.37;99311.84;4968172;28;20038;-68
2023/10/26 10:46:13;;;;;;;10.68;5.00;;;;;;;11.42;98.75;99308.50;4972004;28;20134;-68
2023/10/26 10:49:03;;;;;;;8.63;4.63;;;;;;;11.42;100.00;99305.91;4950592;28;20030;-69
2023/10/26 10:51:36;;;;;;;11.35;6.60;;;;;;;11.42;97.96;99311.09;4962162;28;20047;-68
2023/10/26 10:54:06;;;;;;;11.32;6.97;;;;;;;11.47;97.18;99310.47;4974072;28;20046;-68
2023/10/26 10:56:50;;;;;;;10.43;6.40;;;;;;;11.47;97.37;99302.69;4970325;28;20393;-68
2023/10/26 10:59:26;;;;;;;9.45;6.15;;;;;;;11.57;97.93;99297.94;4964675;28;20034;-68
2023/10/26 11:02:21;;;;;;;10.68;4.95;;;;;;;11.61;99.34;99287.94;4948292;28;21284;-69
2023/10/26 11:04:58;;;;;;;8.10;4.80;;;;;;;11.55;99.19;99273.97;4951466;28;20054;-68
2023/10/26 11:07:27;;;;;;;11.43;4.93;;;;;;;11.53;98.84;99265.59;4964546;28;20050;-68
2023/10/26 11:10:00;;;;;;;8.73;5.30;;;;;;;11.62;98.90;99272.19;4986537;28;20072;-68
2023/10/26 11:12:26;;;;;;;15.00;8.25;;;;;;;11.64;100.00;99275.38;4984502;28;20069;-68
2023/10/26 11:14:53;;;;;;;11.13;6.03;;;;;;;11.66;98.60;99273.38;4968380;28;20053;-68
2023/10/26 11:17:26;;;;;;;8.05;5.45;;;;;;;11.64;99.08;99274.56;4948842;28;20504;-68
2023/10/26 11:19:53;;;;;;;9.32;5.20;;;;;;;11.61;99.94;99265.38;4966834;28;20584;-68
2023/10/26 11:22:20;;;;;;;9.35;5.53;;;;;;;11.71;97.75;99261.59;4965943;28;20121;-68
2023/10/26 11:24:46;;;;;;;9.73;5.85;;;;;;;11.76;97.05;99254.00;4964703;28;20022;-68
2023/10/26 11:27:15;;;;;;;11.43;6.05;;;;;;;11.82;97.64;99243.59;4961511;28;20110;-68
2023/10/26 11:29:42;;;;;;;8.57;5.25;;;;;;;11.83;99.75;99249.59;4962260;28;20531;-68
2023/10/26 11:32:22;;;;;;;14.25;5.78;;;;;;;11.95;99.79;99242.03;4964207;28;20143;-68
2023/10/26 11:35:16;;;;;;;8.43;5.38;;;;;;;11.90;100.00;99239.22;4961514;28;20042;-68
2023/10/26 11:38:03;;;;;;;9.80;6.50;;;;;;;11.84;100.00;99233.78;4936208;28;20039;-68